Time;durP1;ratioP1;P1;durP2;ratioP2;P2;SDS_P1;SDS_P2;PMS_P1;PMS_P2;Temp;Humidity;BMP_temperature;BMP_pressure;BME280_temperature;BME280_humidity;BME280_pressure;Samples;Min_cycle;Max_cycle;Signal;HPM_P1;HPM_P2
2022/12/31 00:04:28;;;;;;;0.90;0.60;;;21.20;55.70;;;;;;6152129;23;20357;-87
2022/12/31 00:07:08;;;;;;;0.90;0.60;;;21.30;55.80;;;;;;6127140;23;20376;-86
2022/12/31 00:10:05;;;;;;;0.80;0.70;;;21.30;55.80;;;;;;6151979;23;20349;-86
2022/12/31 00:12:36;;;;;;;0.80;0.60;;;21.30;55.80;;;;;;6152121;23;20380;-87
2022/12/31 00:15:05;;;;;;;0.90;0.67;;;21.30;55.80;;;;;;6126926;23;20369;-86
2022/12/31 00:17:50;;;;;;;0.90;0.70;;;21.20;55.70;;;;;;6128429;23;20421;-86
2022/12/31 00:20:53;;;;;;;0.80;0.60;;;21.20;55.70;;;;;;6219443;23;20391;-87
2022/12/31 00:23:32;;;;;;;;;;;;;;;;;;;;;
2022/12/31 00:26:09;;;;;;;0.80;0.53;;;21.20;55.70;;;;;;6243175;23;20338;-87
2022/12/31 00:28:47;;;;;;;1.13;0.60;;;21.20;55.70;;;;;;6241020;23;20358;-87
2022/12/31 00:31:23;;;;;;;0.77;0.50;;;21.20;55.80;;;;;;6217114;23;20362;-87
2022/12/31 00:33:51;;;;;;;0.80;0.60;;;21.20;55.80;;;;;;6217053;23;20354;-86
2022/12/31 00:36:46;;;;;;;0.80;0.60;;;21.20;55.80;;;;;;6242653;23;20401;-87
2022/12/31 00:39:15;;;;;;;0.90;0.67;;;21.20;55.80;;;;;;6237041;23;20370;-86
2022/12/31 00:41:44;;;;;;;0.80;0.60;;;21.20;55.80;;;;;;6214957;23;20410;-86
2022/12/31 00:44:14;;;;;;;0.80;0.60;;;21.20;55.80;;;;;;6241505;23;20421;-86
2022/12/31 00:46:44;;;;;;;0.80;0.60;;;21.20;55.80;;;;;;6216717;23;20374;-86
2022/12/31 00:49:25;;;;;;;0.80;0.60;;;21.20;55.80;;;;;;6216040;23;20367;-87
2022/12/31 00:52:04;;;;;;;0.87;0.60;;;21.20;55.70;;;;;;6216157;23;20374;-87
2022/12/31 00:54:39;;;;;;;0.90;0.60;;;21.20;55.80;;;;;;6216198;23;20370;-87
2022/12/31 00:57:30;;;;;;;0.80;0.60;;;21.20;55.80;;;;;;6216501;23;20376;-86
2022/12/31 01:00:06;;;;;;;0.80;0.60;;;21.20;55.70;;;;;;6216434;23;20394;-86
2022/12/31 01:02:41;;;;;;;1.30;0.60;;;21.20;55.80;;;;;;6216981;23;20354;-87
2022/12/31 01:05:15;;;;;;;0.80;0.60;;;21.10;55.70;;;;;;6217250;23;20360;-88
2022/12/31 01:07:50;;;;;;;1.17;0.60;;;21.20;55.80;;;;;;6216783;23;20367;-88
2022/12/31 01:13:55;;;;;;;0.90;0.60;;;21.20;55.80;;;;;;6242633;23;20361;-87
2022/12/31 01:16:27;;;;;;;0.90;0.70;;;21.20;55.80;;;;;;6216482;23;20400;-88
2022/12/31 01:19:03;;;;;;;1.10;0.77;;;21.10;55.70;;;;;;6216715;23;20362;-88
2022/12/31 01:24:28;;;;;;;1.00;0.70;;;21.10;55.70;;;;;;6242839;23;20347;-87
2022/12/31 01:26:57;;;;;;;0.90;0.60;;;21.20;55.80;;;;;;6242221;23;20355;-87
2022/12/31 01:29:23;;;;;;;0.90;0.63;;;21.10;55.70;;;;;;6242290;23;20362;-88
2022/12/31 01:32:02;;;;;;;0.80;0.60;;;21.20;55.80;;;;;;6242125;23;20370;-87
2022/12/31 01:34:46;;;;;;;0.90;0.60;;;21.20;55.80;;;;;;6216381;23;20378;-87
2022/12/31 01:37:16;;;;;;;1.20;0.73;;;21.10;55.70;;;;;;6216393;23;20362;-88
2022/12/31 01:39:47;;;;;;;0.90;0.60;;;21.20;55.80;;;;;;6215901;23;20366;-88
2022/12/31 01:42:20;;;;;;;0.90;0.60;;;21.10;55.70;;;;;;6242204;23;20390;-88
2022/12/31 01:44:57;;;;;;;0.80;0.60;;;21.10;55.70;;;;;;6241355;23;20377;-88
2022/12/31 01:47:48;;;;;;;0.80;0.50;;;21.20;55.80;;;;;;6242201;23;20347;-88
2022/12/31 01:50:45;;;;;;;0.90;0.70;;;21.10;55.70;;;;;;6242455;23;20359;-88
2022/12/31 01:53:11;;;;;;;0.87;0.60;;;21.10;55.70;;;;;;6242513;23;20354;-87
2022/12/31 01:55:54;;;;;;;0.90;0.63;;;21.10;55.70;;;;;;6242067;23;20389;-87
2022/12/31 01:58:26;;;;;;;0.87;0.60;;;21.10;55.70;;;;;;6242070;23;20384;-87
2022/12/31 02:00:59;;;;;;;0.90;0.60;;;21.10;55.70;;;;;;6242270;23;20399;-87
2022/12/31 02:03:41;;;;;;;;;;;;;;;;;;;;;
2022/12/31 02:06:36;;;;;;;;;;;;;;;;;;;;;
2022/12/31 02:09:13;;;;;;;0.80;0.60;;;21.10;55.70;;;;;;6244390;23;20342;-88
2022/12/31 02:11:44;;;;;;;1.00;0.70;;;21.10;55.70;;;;;;6218336;23;20370;-87
2022/12/31 02:14:50;;;;;;;0.80;0.60;;;21.10;55.70;;;;;;6244034;23;20355;-87
2022/12/31 02:17:46;;;;;;;0.80;0.60;;;21.10;55.70;;;;;;6152326;23;20452;-88
2022/12/31 02:21:04;;;;;;;;;;;;;;;;;;;;;
2022/12/31 02:23:59;;;;;;;1.10;0.83;;;21.10;55.80;;;;;;6153069;23;20334;-87
2022/12/31 02:26:48;;;;;;;0.80;0.60;;;21.10;55.80;;;;;;6152764;23;20362;-88
2022/12/31 02:29:50;;;;;;;0.90;0.63;;;21.00;55.70;;;;;;6152740;23;20355;-88
2022/12/31 02:32:28;;;;;;;0.90;0.60;;;21.00;55.70;;;;;;6152651;23;20364;-88
2022/12/31 02:35:08;;;;;;;0.90;0.70;;;21.00;55.70;;;;;;6128392;23;20376;-87
2022/12/31 02:37:45;;;;;;;0.80;0.60;;;21.00;55.70;;;;;;6153005;23;20370;-87
2022/12/31 02:40:26;;;;;;;1.00;0.60;;;21.00;55.70;;;;;;6152498;23;20377;-88
2022/12/31 02:42:58;;;;;;;0.80;0.60;;;21.00;55.70;;;;;;6127997;23;20389;-88
2022/12/31 02:45:49;;;;;;;0.90;0.60;;;21.00;55.70;;;;;;6151926;23;20369;-88
2022/12/31 02:48:45;;;;;;;0.90;0.70;;;21.00;55.70;;;;;;6127816;23;20376;-87
2022/12/31 02:51:23;;;;;;;0.80;0.50;;;21.00;55.70;;;;;;6151981;23;20357;-87
2022/12/31 02:54:31;;;;;;;0.80;0.60;;;21.00;55.70;;;;;;6193456;23;20377;-87
2022/12/31 02:57:03;;;;;;;0.80;0.50;;;21.00;55.70;;;;;;6152586;23;21019;-87
2022/12/31 03:02:48;;;;;;;1.10;0.70;;;21.00;55.70;;;;;;6243898;23;20354;-88
2022/12/31 03:05:36;;;;;;;0.80;0.60;;;21.00;55.70;;;;;;6217754;23;20347;-87
2022/12/31 03:08:23;;;;;;;1.00;0.70;;;21.00;55.80;;;;;;6217667;23;20347;-87
2022/12/31 03:10:57;;;;;;;1.00;0.60;;;21.00;55.80;;;;;;6217552;23;20473;-87
2022/12/31 03:13:50;;;;;;;0.80;0.60;;;21.00;55.70;;;;;;6243681;23;20386;-87
2022/12/31 03:16:19;;;;;;;0.93;0.60;;;21.00;55.70;;;;;;6219363;23;20362;-87
2022/12/31 03:27:41;;;;;;;0.80;0.60;;;21.00;55.70;;;;;;6243595;23;20374;-87
2022/12/31 03:30:21;;;;;;;0.80;0.60;;;21.00;55.80;;;;;;6243211;23;20354;-87
2022/12/31 03:33:03;;;;;;;0.80;0.60;;;21.00;55.80;;;;;;6217502;23;20422;-87
2022/12/31 03:35:37;;;;;;;0.80;0.60;;;21.00;55.70;;;;;;6216732;23;20603;-87
2022/12/31 03:38:11;;;;;;;0.90;0.60;;;21.00;55.70;;;;;;6217637;23;20362;-87
2022/12/31 03:40:49;;;;;;;0.80;0.50;;;21.00;55.70;;;;;;6243268;23;20402;-87
2022/12/31 03:43:34;;;;;;;0.80;0.60;;;21.00;55.70;;;;;;6243676;23;20368;-87
2022/12/31 03:46:08;;;;;;;0.80;0.60;;;21.00;55.70;;;;;;6217782;23;20382;-87
2022/12/31 03:48:41;;;;;;;0.90;0.60;;;21.00;55.70;;;;;;6216360;23;20699;-87
2022/12/31 03:51:19;;;;;;;0.97;0.60;;;21.00;55.70;;;;;;6217111;23;20438;-87
2022/12/31 03:54:06;;;;;;;1.00;0.60;;;21.00;55.70;;;;;;6217393;23;20358;-87
2022/12/31 03:56:32;;;;;;;0.80;0.60;;;21.00;55.70;;;;;;6243166;23;20343;-87
2022/12/31 03:59:01;;;;;;;0.90;0.73;;;21.00;55.70;;;;;;6243195;23;20388;-87
2022/12/31 04:04:28;;;;;;;0.80;0.60;;;21.00;55.70;;;;;;6243203;23;20339;-87
2022/12/31 04:06:56;;;;;;;0.97;0.70;;;21.00;55.70;;;;;;6217080;23;20374;-87
2022/12/31 04:09:29;;;;;;;0.80;0.60;;;21.00;55.70;;;;;;6243060;23;20390;-87
2022/12/31 04:12:07;;;;;;;0.87;0.60;;;21.00;55.70;;;;;;6217083;23;20378;-87
2022/12/31 04:14:43;;;;;;;0.90;0.63;;;21.00;55.70;;;;;;6242144;23;20370;-87
2022/12/31 04:17:32;;;;;;;0.80;0.60;;;21.00;55.70;;;;;;6217069;23;20420;-87
2022/12/31 04:20:00;;;;;;;0.80;0.60;;;21.00;55.70;;;;;;6216690;23;20363;-87
2022/12/31 04:22:29;;;;;;;0.80;0.60;;;20.90;55.60;;;;;;6216120;23;20398;-87
2022/12/31 04:24:55;;;;;;;0.90;0.70;;;20.90;55.70;;;;;;6241399;23;20427;-87
2022/12/31 04:27:24;;;;;;;0.80;0.60;;;20.90;55.70;;;;;;6241763;23;20374;-87
2022/12/31 04:29:50;;;;;;;0.80;0.60;;;21.00;55.70;;;;;;6242893;23;20385;-87
2022/12/31 04:32:23;;;;;;;0.90;0.70;;;21.00;55.70;;;;;;6215958;23;20375;-87
2022/12/31 04:38:35;;;;;;;0.80;0.60;;;20.90;55.60;;;;;;6242833;23;20349;-87
2022/12/31 04:41:21;;;;;;;0.80;0.60;;;20.90;55.60;;;;;;6216605;23;20473;-87
2022/12/31 04:44:20;;;;;;;0.90;0.60;;;20.90;55.70;;;;;;6220759;23;20357;-87
2022/12/31 04:46:55;;;;;;;1.00;0.70;;;20.90;55.70;;;;;;6242725;23;20366;-87
2022/12/31 04:49:37;;;;;;;0.80;0.60;;;20.90;55.70;;;;;;6208921;23;20464;-86
2022/12/31 04:55:25;;;;;;;0.90;0.67;;;20.90;55.70;;;;;;6242457;23;20366;-86
2022/12/31 04:58:01;;;;;;;0.83;0.70;;;20.90;55.70;;;;;;6242744;23;20350;-86
2022/12/31 05:00:48;;;;;;;0.90;0.60;;;20.90;55.70;;;;;;6216089;23;20416;-86
2022/12/31 05:03:39;;;;;;;0.90;0.60;;;20.90;56.30;;;;;;6242343;23;20362;-86
2022/12/31 05:06:40;;;;;;;1.00;0.60;;;20.90;55.70;;;;;;6242240;23;20390;-87
2022/12/31 05:15:23;;;;;;;0.93;0.60;;;20.90;55.70;;;;;;6242745;23;20341;-88
2022/12/31 05:17:57;;;;;;;0.80;0.60;;;20.90;55.70;;;;;;6216342;23;20474;-87
2022/12/31 05:20:26;;;;;;;1.13;0.70;;;20.80;55.70;;;;;;6191911;23;20410;-87
2022/12/31 05:23:12;;;;;;;0.80;0.60;;;20.80;55.70;;;;;;6242383;23;20422;-88
2022/12/31 05:25:52;;;;;;;0.90;0.70;;;20.90;55.70;;;;;;6216211;23;20401;-88
2022/12/31 05:28:27;;;;;;;0.80;0.60;;;20.90;55.70;;;;;;6216594;23;20362;-88
2022/12/31 05:31:18;;;;;;;0.80;0.70;;;20.90;55.70;;;;;;6216395;23;20373;-87
2022/12/31 05:33:46;;;;;;;1.00;0.70;;;20.90;55.70;;;;;;6241297;23;20374;-87
2022/12/31 05:36:13;;;;;;;0.90;0.60;;;20.90;55.70;;;;;;6242021;23;20977;-88
2022/12/31 05:38:42;;;;;;;0.80;0.60;;;20.90;55.80;;;;;;6242465;23;20362;-88
2022/12/31 05:41:14;;;;;;;0.80;0.60;;;20.90;55.70;;;;;;6218353;23;20410;-88
2022/12/31 05:43:40;;;;;;;1.10;0.70;;;20.90;56.00;;;;;;6218489;23;20420;-87
2022/12/31 05:46:14;;;;;;;0.80;0.60;;;20.90;55.70;;;;;;6244223;23;20363;-88
2022/12/31 05:48:45;;;;;;;1.30;0.70;;;20.90;55.70;;;;;;6244177;23;20115;-88
2022/12/31 05:51:31;;;;;;;1.00;0.60;;;20.90;55.70;;;;;;6218318;23;20358;-88
2022/12/31 05:53:57;;;;;;;0.90;0.60;;;20.90;55.70;;;;;;6218028;23;20436;-87
2022/12/31 05:56:52;;;;;;;0.80;0.60;;;20.90;55.70;;;;;;6218739;23;20374;-87
2022/12/31 05:59:23;;;;;;;0.80;0.50;;;20.90;55.70;;;;;;6243373;23;20485;-87
2022/12/31 06:02:10;;;;;;;0.77;0.50;;;20.90;55.70;;;;;;6243232;23;20405;-88
2022/12/31 06:04:39;;;;;;;0.90;0.70;;;20.90;55.70;;;;;;6217015;23;20350;-87
2022/12/31 06:07:11;;;;;;;0.80;0.60;;;20.90;55.70;;;;;;6218300;23;20373;-88
2022/12/31 06:09:39;;;;;;;0.90;0.70;;;20.90;55.70;;;;;;6244174;23;20414;-87
2022/12/31 06:12:21;;;;;;;0.90;0.70;;;20.90;55.70;;;;;;6244214;23;20414;-88
2022/12/31 06:14:51;;;;;;;0.97;0.60;;;20.90;55.70;;;;;;6242990;23;20457;-87
2022/12/31 06:17:28;;;;;;;0.90;0.60;;;20.90;55.70;;;;;;6244059;23;20359;-88
2022/12/31 06:19:58;;;;;;;0.90;0.70;;;20.90;55.70;;;;;;6218058;23;20388;-87
2022/12/31 06:22:36;;;;;;;0.90;0.60;;;20.90;55.60;;;;;;6243910;23;20486;-88
2022/12/31 06:25:15;;;;;;;0.80;0.60;;;20.90;55.70;;;;;;6192904;23;20362;-87
2022/12/31 06:27:46;;;;;;;1.10;0.60;;;21.00;55.70;;;;;;6218293;23;20684;-87
2022/12/31 06:30:20;;;;;;;0.80;0.60;;;21.00;55.70;;;;;;6236280;23;20366;-88
2022/12/31 06:32:46;;;;;;;0.80;0.60;;;21.00;55.70;;;;;;6243642;23;20351;-87
2022/12/31 06:35:17;;;;;;;0.90;0.70;;;21.00;55.70;;;;;;6217945;23;20386;-88
2022/12/31 06:40:56;;;;;;;0.90;0.60;;;21.00;55.70;;;;;;6239413;23;20433;-88
2022/12/31 06:43:25;;;;;;;1.13;0.80;;;21.00;55.70;;;;;;6243931;23;20350;-88
2022/12/31 06:45:51;;;;;;;0.90;0.70;;;21.00;55.70;;;;;;6243641;23;20397;-88
2022/12/31 06:48:29;;;;;;;0.90;0.70;;;21.00;55.70;;;;;;6217916;23;20377;-88
2022/12/31 06:51:13;;;;;;;;;;;;;;;;;;;;;
2022/12/31 06:53:54;;;;;;;;;;;;;;;;;;;;;
2022/12/31 06:56:36;;;;;;;0.90;0.70;;;21.00;55.70;;;;;;6243679;23;20358;-88
2022/12/31 07:02:44;;;;;;;0.80;0.60;;;21.00;55.70;;;;;;6224310;23;20432;-88
2022/12/31 07:11:43;;;;;;;0.80;0.53;;;21.00;55.70;;;;;;6243372;23;20329;-87
2022/12/31 07:14:38;;;;;;;0.93;0.60;;;21.00;55.70;;;;;;6243685;23;20434;-87
2022/12/31 07:17:21;;;;;;;0.90;0.60;;;21.00;55.70;;;;;;6242970;23;20378;-88
2022/12/31 07:23:09;;;;;;;0.90;0.60;;;21.10;55.80;;;;;;6243587;23;20367;-88
2022/12/31 07:26:07;;;;;;;0.80;0.60;;;21.00;55.70;;;;;;6243744;23;20362;-88
2022/12/31 07:29:07;;;;;;;0.90;0.57;;;21.10;55.80;;;;;;6221205;23;20386;-88
2022/12/31 07:32:19;;;;;;;0.90;0.60;;;21.10;55.70;;;;;;6241861;23;20379;-87
2022/12/31 07:35:16;;;;;;;0.80;0.60;;;21.10;55.70;;;;;;6151757;23;20381;-87
2022/12/31 07:37:59;;;;;;;1.00;0.60;;;21.10;55.70;;;;;;6152055;23;20384;-87
2022/12/31 07:44:34;;;;;;;0.83;0.60;;;21.10;55.70;;;;;;6152156;23;20355;-87
2022/12/31 07:47:14;;;;;;;0.90;0.67;;;21.10;55.70;;;;;;6152134;23;20408;-86
2022/12/31 07:49:57;;;;;;;0.90;0.60;;;21.10;56.20;;;;;;6152007;23;20372;-86
2022/12/31 07:52:36;;;;;;;0.90;0.70;;;21.10;55.70;;;;;;6126496;23;20462;-88
2022/12/31 07:55:18;;;;;;;1.00;0.60;;;21.20;55.80;;;;;;6126987;23;20383;-88
2022/12/31 07:58:15;;;;;;;0.80;0.60;;;21.20;55.80;;;;;;6151754;23;20373;-88
2022/12/31 08:01:11;;;;;;;0.90;0.60;;;21.20;55.70;;;;;;6151546;23;20435;-88
2022/12/31 08:04:21;;;;;;;0.80;0.60;;;21.20;55.70;;;;;;6151911;23;21237;-87
2022/12/31 08:07:04;;;;;;;1.07;0.70;;;21.10;55.60;;;;;;6150520;23;20377;-88
2022/12/31 08:10:07;;;;;;;0.80;0.57;;;21.10;55.60;;;;;;6176325;23;20390;-88
2022/12/31 08:12:49;;;;;;;0.80;0.50;;;21.20;55.70;;;;;;6217331;23;20365;-88
2022/12/31 08:15:40;;;;;;;;;;;;;;;;;;;;;
2022/12/31 08:18:12;;;;;;;1.00;0.70;;;21.10;55.70;;;;;;6241803;23;20378;-87
2022/12/31 08:21:47;;;;;;;0.90;0.70;;;21.10;55.60;;;;;;6241438;23;20418;-88
2022/12/31 08:24:40;;;;;;;;;;;;;;;;;;;;;
2022/12/31 08:27:47;;;;;;;0.80;0.60;;;21.20;55.80;;;;;;6242971;23;20350;-86
2022/12/31 08:30:29;;;;;;;0.87;0.60;;;21.20;55.80;;;;;;6146722;23;20373;-87
2022/12/31 08:33:23;;;;;;;0.80;0.60;;;21.20;55.80;;;;;;6217112;23;20393;-86
2022/12/31 08:36:21;;;;;;;0.80;0.50;;;21.10;55.70;;;;;;6217147;23;20366;-87
2022/12/31 08:39:06;;;;;;;0.80;0.60;;;21.20;55.80;;;;;;6241780;23;20389;-87
2022/12/31 08:42:07;;;;;;;1.00;0.60;;;21.20;55.80;;;;;;6216509;23;20448;-87
2022/12/31 08:45:03;;;;;;;0.90;0.80;;;21.20;55.80;;;;;;6215763;23;20377;-86
2022/12/31 08:47:35;;;;;;;1.00;0.67;;;21.20;55.70;;;;;;6216865;23;20362;-86
2022/12/31 08:50:24;;;;;;;;;;;;;;;;;;;;;
2022/12/31 08:53:01;;;;;;;1.00;0.70;;;21.20;55.70;;;;;;6220649;23;20354;-86
2022/12/31 08:55:45;;;;;;;0.90;0.60;;;21.20;55.70;;;;;;6242468;23;20743;-86
2022/12/31 08:58:50;;;;;;;0.90;0.70;;;21.20;55.70;;;;;;6217322;23;20374;-86
2022/12/31 09:01:26;;;;;;;0.90;0.70;;;21.20;55.70;;;;;;6241195;23;20448;-86
2022/12/31 09:04:19;;;;;;;1.10;0.60;;;21.20;55.70;;;;;;6216992;23;20377;-86
2022/12/31 09:06:57;;;;;;;0.90;0.60;;;21.20;55.70;;;;;;6240318;23;20369;-88
2022/12/31 09:10:01;;;;;;;1.33;0.77;;;21.20;55.70;;;;;;6241770;23;20366;-88
2022/12/31 09:13:14;;;;;;;0.80;0.60;;;21.20;55.70;;;;;;6195995;23;20374;-87
2022/12/31 09:22:57;;;;;;;0.80;0.50;;;21.20;55.70;;;;;;6156461;23;20443;-86
2022/12/31 09:25:55;;;;;;;0.90;0.70;;;21.20;55.70;;;;;;6154154;23;20376;-85
2022/12/31 09:28:44;;;;;;;0.90;0.60;;;21.20;55.80;;;;;;6066812;23;20387;-87
2022/12/31 09:31:32;;;;;;;0.80;0.70;;;21.20;55.80;;;;;;6128700;23;20396;-88
2022/12/31 09:34:35;;;;;;;0.80;0.70;;;21.20;55.70;;;;;;6128654;23;20405;-88
2022/12/31 09:37:49;;;;;;;0.80;0.60;;;21.20;55.70;;;;;;6081785;23;20415;-88
2022/12/31 09:40:38;;;;;;;0.80;0.60;;;21.20;55.70;;;;;;6070562;23;20387;-88
2022/12/31 09:43:51;;;;;;;0.80;0.60;;;21.20;55.80;;;;;;6153345;23;20412;-87
2022/12/31 09:46:49;;;;;;;0.80;0.60;;;21.20;55.80;;;;;;6153053;23;20353;-88
2022/12/31 09:52:59;;;;;;;0.80;0.60;;;21.20;55.80;;;;;;6153064;23;20348;-88
2022/12/31 09:56:10;;;;;;;0.90;0.60;;;21.20;55.80;;;;;;6196600;23;20397;-88
2022/12/31 09:58:53;;;;;;;0.90;0.70;;;21.20;55.80;;;;;;6244264;23;20335;-88
2022/12/31 10:01:47;;;;;;;0.90;0.60;;;21.20;55.80;;;;;;6243464;23;20413;-88
2022/12/31 10:04:47;;;;;;;1.00;0.60;;;21.20;55.80;;;;;;6244212;23;20377;-88
2022/12/31 10:27:50;;;;;;;1.00;0.80;;;21.20;55.90;;;;;;6094323;23;20386;-87
2022/12/31 10:37:30;;;;;;;0.80;0.60;;;21.20;55.90;;;;;;6094519;23;20377;-86
2022/12/31 10:40:37;;;;;;;0.80;0.60;;;21.20;56.00;;;;;;6069992;23;20378;-87
2022/12/31 10:47:12;;;;;;;0.83;0.60;;;21.10;55.90;;;;;;6094486;23;20427;-86
2022/12/31 10:59:57;;;;;;;0.90;0.70;;;21.10;55.90;;;;;;6182300;23;20382;-86
2022/12/31 11:03:10;;;;;;;0.80;0.60;;;21.10;55.90;;;;;;6212643;23;20436;-87
2022/12/31 11:06:15;;;;;;;0.80;0.60;;;21.10;55.90;;;;;;6069739;23;20423;-87
2022/12/31 11:09:11;;;;;;;0.80;0.60;;;21.20;56.00;;;;;;6070075;23;20398;-87
2022/12/31 11:12:15;;;;;;;0.80;0.70;;;21.10;55.90;;;;;;6094345;23;20374;-87
2022/12/31 11:14:52;;;;;;;0.80;0.50;;;21.20;56.10;;;;;;6070051;23;20454;-87
2022/12/31 11:18:14;;;;;;;0.80;0.60;;;21.20;56.00;;;;;;6092831;23;20379;-86
2022/12/31 11:21:29;;;;;;;0.90;0.70;;;21.20;56.00;;;;;;6077158;23;20414;-87
2022/12/31 11:24:49;;;;;;;0.80;0.60;;;21.10;55.90;;;;;;6093783;23;20382;-87
2022/12/31 11:27:32;;;;;;;0.80;0.60;;;21.20;56.00;;;;;;6062090;23;20424;-87
2022/12/31 11:30:57;;;;;;;;;;;;;;;;;;;;;
2022/12/31 11:33:43;;;;;;;0.80;0.50;;;21.10;55.90;;;;;;6094025;23;20355;-87
2022/12/31 11:39:54;;;;;;;0.80;0.70;;;21.10;55.90;;;;;;6093407;23;20379;-88
2022/12/31 11:42:58;;;;;;;0.80;0.60;;;21.20;56.00;;;;;;6133482;23;20473;-87
2022/12/31 11:46:17;;;;;;;0.80;0.60;;;21.20;56.00;;;;;;6187416;23;20371;-87
2022/12/31 11:49:26;;;;;;;1.57;0.60;;;21.10;56.00;;;;;;6166060;23;20367;-87
2022/12/31 11:52:39;;;;;;;0.80;0.57;;;21.20;56.00;;;;;;6185607;23;20396;-87
2022/12/31 11:55:47;;;;;;;0.80;0.70;;;21.20;56.00;;;;;;6185868;23;20378;-88
2022/12/31 11:58:31;;;;;;;;;;;;;;;;;;;;;
2022/12/31 12:04:31;;;;;;;0.80;0.60;;;21.20;56.00;;;;;;6093412;23;20371;-87
2022/12/31 12:07:16;;;;;;;0.80;0.53;;;21.10;55.90;;;;;;6092942;23;20367;-87
2022/12/31 12:10:08;;;;;;;;;;;;;;;;;;;;;
2022/12/31 12:12:46;;;;;;;0.80;0.60;;;21.20;56.00;;;;;;6094059;23;20366;-87
2022/12/31 12:15:26;;;;;;;0.80;0.60;;;21.20;56.00;;;;;;6093132;23;20405;-87
2022/12/31 12:18:00;;;;;;;0.80;0.53;;;21.20;56.00;;;;;;6069630;23;20370;-88
2022/12/31 12:20:45;;;;;;;0.90;0.60;;;21.20;56.00;;;;;;6093501;23;20371;-88
2022/12/31 12:23:27;;;;;;;1.00;0.70;;;21.20;56.00;;;;;;6069308;23;20381;-87
2022/12/31 12:29:11;;;;;;;;;;;;;;;;;;;;;
2022/12/31 12:35:31;;;;;;;1.03;0.70;;;21.20;56.00;;;;;;6093303;23;20398;-88
2022/12/31 12:42:08;;;;;;;0.80;0.50;;;21.20;56.00;;;;;;6008688;23;20428;-87
2022/12/31 12:45:19;;;;;;;0.90;0.60;;;21.20;56.10;;;;;;6043534;23;20386;-87
2022/12/31 12:51:50;;;;;;;0.90;0.70;;;21.20;56.10;;;;;;6063218;23;20363;-87
2022/12/31 12:55:12;;;;;;;0.80;0.50;;;21.20;56.10;;;;;;6093348;23;20405;-87
2022/12/31 12:58:17;;;;;;;0.90;0.60;;;21.20;56.10;;;;;;6069508;23;20370;-87
2022/12/31 13:04:31;;;;;;;0.90;0.60;;;21.20;56.10;;;;;;6015044;23;20368;-87
2022/12/31 13:14:10;;;;;;;;;;;;;;;;;;;;;
2022/12/31 13:17:06;;;;;;;0.90;0.60;;;21.20;56.20;;;;;;6064289;23;20383;-87
2022/12/31 13:20:06;;;;;;;0.90;0.70;;;21.20;56.20;;;;;;6063930;23;20408;-88
2022/12/31 13:26:25;;;;;;;1.00;0.80;;;21.20;56.20;;;;;;6064236;23;20404;-88
2022/12/31 13:28:58;;;;;;;1.00;0.60;;;21.20;56.20;;;;;;6064232;23;20386;-87
2022/12/31 13:31:59;;;;;;;0.80;0.50;;;21.20;56.20;;;;;;6063940;23;20386;-88
2022/12/31 13:34:43;;;;;;;0.90;0.60;;;21.20;56.20;;;;;;6062556;23;20386;-87
2022/12/31 13:40:50;;;;;;;0.80;0.60;;;21.20;56.20;;;;;;6212587;23;20386;-87
2022/12/31 13:43:43;;;;;;;0.80;0.60;;;21.20;56.20;;;;;;6186772;23;20382;-87
2022/12/31 13:46:40;;;;;;;0.90;0.60;;;21.20;56.20;;;;;;6185331;23;20378;-87
2022/12/31 13:49:42;;;;;;;0.80;0.60;;;21.20;56.20;;;;;;6186899;23;20431;-87
2022/12/31 13:52:31;;;;;;;0.80;0.60;;;21.20;56.20;;;;;;6211923;23;20370;-87
2022/12/31 13:55:57;;;;;;;0.90;0.60;;;21.20;56.20;;;;;;6212464;23;20381;-87
2022/12/31 14:02:22;;;;;;;1.10;0.70;;;21.20;56.20;;;;;;6094814;23;20421;-88
2022/12/31 14:05:29;;;;;;;1.00;0.63;;;21.20;56.20;;;;;;6094646;23;20405;-87
2022/12/31 14:08:11;;;;;;;0.80;0.60;;;21.20;56.20;;;;;;6094546;23;20366;-88
2022/12/31 14:11:03;;;;;;;0.80;0.60;;;21.10;56.20;;;;;;6095052;23;20371;-87
2022/12/31 14:14:13;;;;;;;0.80;0.53;;;21.20;56.20;;;;;;6095020;23;20366;-87
2022/12/31 14:17:37;;;;;;;;;;;;;;;;;;;;;
2022/12/31 14:20:31;;;;;;;0.80;0.60;;;21.20;56.20;;;;;;6093656;23;20371;-86
2022/12/31 14:23:37;;;;;;;0.93;0.60;;;21.20;56.20;;;;;;6094177;23;20382;-86
2022/12/31 14:32:49;;;;;;;0.90;0.60;;;21.20;56.30;;;;;;6094862;23;20362;-87
2022/12/31 14:35:15;;;;;;;1.00;0.60;;;21.20;56.30;;;;;;6143787;23;20382;-87
2022/12/31 14:42:03;;;;;;;;;;;;;;;;;;;;;
2022/12/31 14:45:05;;;;;;;1.20;0.60;;;21.10;56.20;;;;;;6122038;23;20367;-87
2022/12/31 14:51:12;;;;;;;0.80;0.60;;;21.20;56.30;;;;;;6152610;23;20454;-87
2022/12/31 14:58:07;;;;;;;0.80;0.60;;;21.20;56.30;;;;;;6118821;23;20383;-87
2022/12/31 15:07:57;;;;;;;0.80;0.57;;;21.10;56.20;;;;;;6037324;23;20448;-86
2022/12/31 15:16:29;;;;;;;1.00;0.60;;;21.10;56.20;;;;;;6243586;23;20462;-86
2022/12/31 15:18:56;;;;;;;1.00;0.60;;;21.10;56.20;;;;;;6243600;23;20330;-86
2022/12/31 15:21:46;;;;;;;;;;;;;;;;;;;;;
2022/12/31 15:25:11;;;;;;;0.90;0.60;;;21.10;56.20;;;;;;6243898;23;20342;-87
2022/12/31 15:31:19;;;;;;;;;;;;;;;;;;;;;
2022/12/31 15:34:03;;;;;;;0.80;0.50;;;21.20;56.30;;;;;;6228402;23;20363;-87
2022/12/31 15:36:44;;;;;;;0.90;0.60;;;21.10;56.20;;;;;;6215312;23;20374;-87
2022/12/31 15:39:19;;;;;;;0.80;0.60;;;21.10;56.20;;;;;;6216235;23;20406;-87
2022/12/31 15:45:41;;;;;;;0.93;0.60;;;21.20;56.20;;;;;;6170430;23;20553;-87
2022/12/31 15:55:36;;;;;;;0.80;0.60;;;21.10;56.10;;;;;;6093631;23;20362;-86
2022/12/31 15:58:34;;;;;;;0.90;0.60;;;21.10;56.20;;;;;;6069584;23;20374;-86
2022/12/31 16:01:41;;;;;;;0.90;0.70;;;21.10;56.20;;;;;;6049552;23;20441;-86
2022/12/31 16:04:40;;;;;;;1.10;0.70;;;21.10;56.20;;;;;;6008015;24;20383;-87
2022/12/31 16:07:20;;;;;;;0.80;0.60;;;21.10;56.20;;;;;;5965727;24;20369;-87
2022/12/31 16:09:52;;;;;;;0.80;0.60;;;21.10;56.20;;;;;;6006674;24;20361;-87
2022/12/31 16:13:07;;;;;;;;;;;;;;;;;;;;;
2022/12/31 16:23:11;;;;;;;;;;;;;;;;;;;;;
2022/12/31 16:26:20;;;;;;;1.00;0.70;;;21.10;56.10;;;;;;5902405;24;20388;-87
2022/12/31 16:28:49;;;;;;;1.37;0.60;;;21.10;56.10;;;;;;5954361;24;20423;-87
2022/12/31 16:31:28;;;;;;;0.80;0.60;;;21.10;56.10;;;;;;5979574;24;20417;-87
2022/12/31 16:34:25;;;;;;;0.90;0.60;;;21.10;56.10;;;;;;5979440;24;20398;-87
2022/12/31 16:37:23;;;;;;;0.90;0.60;;;21.10;56.10;;;;;;5980025;24;20371;-87
2022/12/31 16:39:57;;;;;;;0.80;0.60;;;21.10;56.10;;;;;;6004635;23;20383;-88
2022/12/31 16:42:50;;;;;;;0.90;0.70;;;21.10;56.10;;;;;;6064043;23;20415;-86
2022/12/31 16:45:28;;;;;;;0.90;0.60;;;21.10;56.00;;;;;;6042058;23;20391;-87
2022/12/31 16:47:54;;;;;;;1.33;0.80;;;21.10;56.00;;;;;;6121987;23;20369;-87
2022/12/31 16:50:29;;;;;;;0.90;0.60;;;21.10;56.00;;;;;;6122024;23;20365;-87
2022/12/31 16:56:01;;;;;;;0.80;0.60;;;21.10;56.00;;;;;;6148800;23;20370;-87
2022/12/31 16:58:46;;;;;;;0.90;0.70;;;21.10;56.00;;;;;;6187246;23;20389;-87
2022/12/31 17:04:50;;;;;;;0.80;0.60;;;21.20;56.10;;;;;;6212858;23;20362;-87
2022/12/31 17:07:28;;;;;;;0.90;0.60;;;21.20;56.10;;;;;;6186691;23;20362;-87
2022/12/31 17:10:29;;;;;;;0.90;0.60;;;21.20;56.10;;;;;;6186035;23;20370;-87
2022/12/31 17:13:03;;;;;;;0.80;0.60;;;21.10;56.00;;;;;;6186461;23;20363;-87
2022/12/31 17:15:49;;;;;;;1.00;0.60;;;21.10;56.00;;;;;;6186091;23;20375;-87
2022/12/31 17:25:40;;;;;;;0.90;0.60;;;21.10;55.90;;;;;;6093296;23;20358;-87
2022/12/31 17:28:52;;;;;;;1.00;0.70;;;21.20;56.10;;;;;;6069220;23;20382;-88
2022/12/31 17:31:41;;;;;;;0.80;0.60;;;21.10;56.00;;;;;;6092745;23;20471;-88
2022/12/31 17:34:30;;;;;;;0.93;0.60;;;21.10;56.60;;;;;;6092774;23;20354;-87
2022/12/31 17:37:12;;;;;;;0.90;0.60;;;21.10;56.00;;;;;;6071154;23;20394;-88
2022/12/31 17:40:01;;;;;;;0.90;0.67;;;21.20;56.10;;;;;;6095286;23;20355;-87
2022/12/31 17:42:47;;;;;;;0.80;0.60;;;21.20;56.10;;;;;;6094813;23;20422;-86
2022/12/31 17:45:33;;;;;;;;;;;;;;;;;;;;;
2022/12/31 17:48:06;;;;;;;0.80;0.53;;;21.20;56.10;;;;;;6093551;23;20367;-88
2022/12/31 17:50:58;;;;;;;0.90;0.70;;;21.20;56.10;;;;;;6071789;23;20386;-88
2022/12/31 17:54:10;;;;;;;0.87;0.60;;;21.10;55.90;;;;;;6214242;23;20375;-87
2022/12/31 17:57:05;;;;;;;0.80;0.60;;;21.20;56.00;;;;;;6188680;23;20366;-88
2022/12/31 18:06:44;;;;;;;;;;;;;;;;;;;;;
2022/12/31 18:09:20;;;;;;;0.80;0.60;;;21.20;56.00;;;;;;6213756;23;20356;-86
2022/12/31 18:12:02;;;;;;;0.80;0.50;;;21.10;56.50;;;;;;6187763;23;20363;-86
2022/12/31 18:15:00;;;;;;;;;;;;;;;;;;;;;
2022/12/31 18:17:53;;;;;;;0.80;0.60;;;21.20;56.00;;;;;;6213087;23;20363;-86
2022/12/31 18:23:21;;;;;;;0.80;0.50;;;21.20;56.00;;;;;;6214230;23;20351;-87
2022/12/31 18:26:12;;;;;;;;;;;;;;;;;;;;;
2022/12/31 18:28:55;;;;;;;0.80;0.60;;;21.20;56.00;;;;;;6214025;23;20371;-87
2022/12/31 18:31:31;;;;;;;0.90;0.60;;;21.20;56.00;;;;;;6182511;23;20376;-87
2022/12/31 18:34:01;;;;;;;0.90;0.60;;;21.20;56.00;;;;;;6213960;23;20368;-87
2022/12/31 18:36:43;;;;;;;1.77;0.60;;;21.20;56.00;;;;;;6212293;23;20386;-87
2022/12/31 18:39:27;;;;;;;0.80;0.60;;;21.20;56.00;;;;;;6186936;23;20372;-87